createdAt,value
2023-07-26T00:00:29.682Z,1.53
2023-07-26T00:03:02.625Z,1.77
2023-07-26T00:05:37.261Z,1.90
2023-07-26T00:08:09.975Z,1.80
2023-07-26T00:10:51.651Z,2.07
2023-07-26T00:13:24.364Z,1.77
2023-07-26T00:15:58.316Z,1.83
2023-07-26T00:18:31.008Z,2.00
2023-07-26T00:21:03.690Z,1.60
2023-07-26T00:23:36.440Z,1.80
2023-07-26T00:26:12.279Z,1.50
2023-07-26T00:28:44.958Z,1.50
2023-07-26T00:31:19.237Z,1.93
2023-07-26T00:33:54.906Z,2.43
2023-07-26T00:36:27.454Z,1.90
2023-07-26T00:39:00.035Z,2.07
2023-07-26T00:41:32.708Z,2.00
2023-07-26T00:44:05.704Z,1.90
2023-07-26T00:46:39.884Z,2.10
2023-07-26T00:49:12.594Z,2.00
2023-07-26T00:51:45.375Z,1.70
2023-07-26T00:54:21.014Z,1.80
2023-07-26T00:56:54.111Z,2.47
2023-07-26T00:59:26.765Z,1.93
2023-07-26T01:02:00.853Z,2.20
2023-07-26T01:04:33.558Z,2.20
2023-07-26T01:07:10.772Z,2.40
2023-07-26T01:09:46.880Z,2.00
2023-07-26T01:12:21.763Z,2.10
2023-07-26T01:14:58.354Z,2.37
2023-07-26T01:17:35.012Z,2.10
2023-07-26T01:20:08.149Z,1.97
2023-07-26T01:22:42.286Z,2.20
2023-07-26T01:25:14.988Z,2.00
2023-07-26T01:27:47.607Z,2.20
2023-07-26T01:30:21.488Z,2.00
2023-07-26T01:32:55.620Z,2.07
2023-07-26T01:35:28.825Z,1.73
2023-07-26T01:38:07.081Z,1.63
2023-07-26T01:40:40.124Z,1.80
2023-07-26T01:43:13.134Z,2.30
2023-07-26T01:45:45.856Z,1.77
2023-07-26T01:48:18.448Z,2.13
2023-07-26T01:50:51.091Z,2.17
2023-07-26T01:53:25.187Z,1.90
2023-07-26T01:55:57.870Z,1.70
2023-07-26T01:58:30.621Z,1.67
2023-07-26T02:01:06.361Z,1.90
2023-07-26T02:03:39.096Z,2.23
2023-07-26T02:06:11.881Z,1.90
2023-07-26T02:08:53.075Z,1.90
2023-07-26T02:11:26.097Z,2.10
2023-07-26T02:13:58.630Z,1.80
2023-07-26T02:16:31.334Z,2.20
2023-07-26T02:19:04.467Z,2.13
2023-07-26T02:21:38.666Z,2.40
2023-07-26T02:24:12.771Z,2.73
2023-07-26T02:26:45.609Z,1.97
2023-07-26T02:29:20.042Z,2.00
2023-07-26T02:31:52.679Z,2.20
2023-07-26T02:34:25.389Z,2.13
2023-07-26T02:36:58.146Z,2.40
2023-07-26T02:39:32.322Z,2.13
2023-07-26T02:42:05.140Z,2.37
2023-07-26T02:44:39.200Z,2.23
2023-07-26T02:47:11.976Z,1.83
2023-07-26T02:49:44.813Z,2.03
2023-07-26T02:52:17.463Z,2.33
2023-07-26T02:54:51.516Z,2.10
2023-07-26T02:57:24.299Z,2.30
2023-07-26T02:59:56.866Z,1.90
2023-07-26T03:02:32.941Z,2.33
2023-07-26T03:05:05.848Z,2.00
2023-07-26T03:07:38.534Z,2.30
2023-07-26T03:10:12.520Z,2.60
2023-07-26T03:12:45.117Z,2.13
2023-07-26T03:15:17.833Z,2.60
2023-07-26T03:17:50.583Z,2.40
2023-07-26T03:20:23.242Z,2.60
2023-07-26T03:22:58.304Z,2.50
2023-07-26T03:25:32.238Z,2.40
2023-07-26T03:28:05.350Z,2.40
2023-07-26T03:30:38.074Z,2.50
2023-07-26T03:33:10.915Z,2.83
2023-07-26T03:35:43.681Z,2.33
2023-07-26T03:38:16.552Z,2.57
2023-07-26T03:40:50.537Z,2.87
2023-07-26T03:43:23.143Z,3.10
2023-07-26T03:45:56.150Z,2.50
2023-07-26T03:48:28.996Z,2.30
2023-07-26T03:51:01.570Z,2.10
2023-07-26T03:53:34.164Z,2.37
2023-07-26T03:56:08.175Z,2.40
2023-07-26T03:58:40.808Z,2.57
2023-07-26T04:01:15.094Z,2.93
2023-07-26T04:03:48.090Z,2.40
2023-07-26T04:06:20.983Z,2.67
2023-07-26T04:08:53.649Z,2.87
2023-07-26T04:11:28.980Z,2.57
2023-07-26T04:14:01.710Z,2.80
2023-07-26T04:16:34.558Z,2.60
2023-07-26T04:19:07.627Z,2.50
2023-07-26T04:21:45.294Z,2.70
2023-07-26T04:24:17.890Z,2.43
2023-07-26T04:26:53.586Z,2.63
2023-07-26T04:29:26.265Z,3.40
2023-07-26T04:31:58.843Z,3.13
2023-07-26T04:34:31.574Z,2.63
2023-07-26T04:37:04.546Z,2.70
2023-07-26T04:39:37.201Z,2.87
2023-07-26T04:42:11.079Z,2.50
2023-07-26T04:44:43.773Z,2.80
2023-07-26T04:47:17.613Z,3.17
2023-07-26T04:49:50.552Z,2.63
2023-07-26T04:52:23.258Z,2.63
2023-07-26T04:54:55.926Z,2.63
2023-07-26T04:57:30.070Z,2.40
2023-07-26T05:00:02.882Z,2.80
2023-07-26T05:02:36.067Z,2.60
2023-07-26T05:05:09.036Z,2.50
2023-07-26T05:07:45.279Z,2.50
2023-07-26T05:10:18.173Z,2.10
2023-07-26T05:12:52.282Z,2.87
2023-07-26T05:15:24.947Z,2.87
2023-07-26T05:17:57.736Z,2.27
2023-07-26T05:20:30.840Z,2.20
2023-07-26T05:23:03.383Z,2.67
2023-07-26T05:25:36.647Z,2.70
2023-07-26T05:28:10.796Z,2.70
2023-07-26T05:30:43.732Z,2.40
2023-07-26T05:33:17.409Z,2.90
2023-07-26T05:35:52.929Z,2.80
2023-07-26T05:38:25.786Z,2.67
2023-07-26T05:41:04.053Z,2.77
2023-07-26T05:43:38.139Z,2.47
2023-07-26T05:46:11.703Z,2.60
2023-07-26T05:48:44.345Z,2.70
2023-07-26T05:51:17.121Z,2.33
2023-07-26T05:53:49.645Z,2.27
2023-07-26T05:56:25.268Z,2.60
2023-07-26T05:59:02.122Z,2.40
2023-07-26T06:01:35.231Z,2.53
2023-07-26T06:04:08.134Z,3.13
2023-07-26T06:06:41.106Z,2.27
2023-07-26T06:09:13.953Z,2.73
2023-07-26T06:11:55.527Z,2.67
2023-07-26T06:14:33.284Z,2.80
2023-07-26T06:17:06.511Z,2.77
2023-07-26T06:19:40.322Z,2.40
2023-07-26T06:22:13.589Z,2.70
2023-07-26T06:24:46.354Z,2.40
2023-07-26T06:27:22.282Z,2.73
2023-07-26T06:29:56.246Z,2.83
2023-07-26T06:32:29.139Z,2.23
2023-07-26T06:35:01.769Z,2.10
2023-07-26T06:37:34.610Z,2.27
2023-07-26T06:40:10.990Z,3.37
2023-07-26T06:42:47.166Z,2.10
2023-07-26T06:45:21.193Z,2.30
2023-07-26T06:47:54.985Z,2.37
2023-07-26T06:50:27.799Z,2.23
2023-07-26T06:53:00.480Z,2.30
2023-07-26T06:55:34.190Z,2.13
2023-07-26T06:58:06.922Z,2.43
2023-07-26T07:00:41.696Z,2.07
2023-07-26T07:03:15.300Z,2.10
2023-07-26T07:05:48.068Z,2.13
2023-07-26T07:08:22.936Z,1.83
2023-07-26T07:10:55.619Z,2.00
2023-07-26T07:13:28.424Z,2.00
2023-07-26T07:16:04.922Z,1.63
2023-07-26T07:18:40.738Z,1.60
2023-07-26T07:21:13.581Z,1.73
2023-07-26T07:23:46.464Z,2.17
2023-07-26T07:26:19.240Z,2.07
2023-07-26T07:28:51.881Z,1.80
2023-07-26T07:31:28.187Z,1.90
2023-07-26T07:34:00.993Z,2.13
2023-07-26T07:36:33.634Z,1.87
2023-07-26T07:39:09.155Z,1.70
2023-07-26T07:41:41.965Z,1.80
2023-07-26T07:44:14.718Z,1.50
2023-07-26T07:47:00.337Z,1.90
2023-07-26T07:49:34.640Z,1.80
2023-07-26T07:52:08.503Z,1.33
2023-07-26T07:54:43.839Z,1.30
2023-07-26T07:57:17.709Z,1.83
2023-07-26T07:59:50.373Z,1.63
2023-07-26T08:02:26.671Z,1.73
2023-07-26T08:04:59.509Z,1.93
2023-07-26T08:07:32.175Z,1.70
2023-07-26T08:10:05.177Z,1.50
2023-07-26T08:12:37.929Z,1.90
2023-07-26T08:15:13.314Z,1.80
2023-07-26T08:17:47.331Z,2.00
2023-07-26T08:20:20.100Z,2.00
2023-07-26T08:22:55.474Z,1.90
2023-07-26T08:25:29.577Z,1.80
2023-07-26T08:28:04.584Z,1.43
2023-07-26T08:30:38.157Z,1.40
2023-07-26T08:33:14.476Z,1.80
2023-07-26T08:35:47.233Z,2.00
2023-07-26T08:38:19.847Z,1.70
2023-07-26T08:40:52.740Z,1.90
2023-07-26T08:43:25.782Z,2.20
2023-07-26T08:45:59.642Z,1.73
2023-07-26T08:48:34.065Z,1.90
2023-07-26T08:51:07.893Z,2.53
2023-07-26T08:53:42.263Z,1.70
2023-07-26T08:56:16.668Z,1.70
2023-07-26T08:58:49.290Z,1.90
2023-07-26T09:01:22.249Z,1.67
2023-07-26T09:03:58.871Z,2.10
2023-07-26T09:06:39.837Z,2.27
2023-07-26T09:09:12.976Z,1.90
2023-07-26T09:11:50.654Z,1.80
2023-07-26T09:14:28.591Z,2.07
2023-07-26T09:17:04.555Z,1.70
2023-07-26T09:19:42.438Z,2.00
2023-07-26T09:22:15.168Z,1.90
2023-07-26T09:24:51.583Z,2.13
2023-07-26T09:27:24.523Z,2.10
2023-07-26T09:29:58.022Z,2.00
2023-07-26T09:32:31.149Z,2.03
2023-07-26T09:35:06.652Z,1.80
2023-07-26T09:37:39.401Z,1.57
2023-07-26T09:40:21.519Z,1.73
2023-07-26T09:42:57.588Z,1.80
2023-07-26T09:45:32.560Z,5.23
2023-07-26T09:48:20.869Z,1.63
2023-07-26T09:53:52.812Z,1.77
2023-07-26T09:56:25.734Z,1.47
2023-07-26T09:58:58.581Z,2.23
2023-07-26T10:01:32.071Z,1.90
2023-07-26T10:04:05.877Z,1.50
2023-07-26T10:06:40.363Z,1.60
2023-07-26T10:09:15.940Z,2.00
2023-07-26T10:11:49.226Z,1.40
2023-07-26T10:14:23.173Z,1.73
2023-07-26T10:16:57.184Z,1.33
2023-07-26T10:19:30.410Z,1.60
2023-07-26T10:22:05.162Z,1.63
2023-07-26T10:24:39.109Z,1.80
2023-07-26T10:27:13.641Z,1.87
2023-07-26T10:29:49.089Z,1.67
2023-07-26T10:32:21.686Z,1.50
2023-07-26T10:34:57.827Z,2.07
2023-07-26T10:37:34.376Z,2.03
2023-07-26T10:40:29.972Z,1.93
2023-07-26T10:43:19.938Z,1.50
2023-07-26T10:45:55.545Z,1.50
2023-07-26T10:48:29.318Z,2.00
2023-07-26T10:51:02.262Z,1.80
2023-07-26T10:53:43.333Z,1.70
2023-07-26T10:56:20.782Z,1.93
2023-07-26T10:58:56.944Z,1.63
2023-07-26T11:01:34.056Z,1.57
2023-07-26T11:04:16.290Z,1.73
2023-07-26T11:06:56.583Z,2.07
2023-07-26T11:09:32.217Z,1.30
2023-07-26T11:12:05.720Z,1.70
2023-07-26T11:14:38.773Z,1.47
2023-07-26T11:17:12.834Z,1.90
2023-07-26T11:19:46.774Z,1.47
2023-07-26T11:22:27.975Z,1.53
2023-07-26T11:25:06.806Z,1.60
2023-07-26T11:27:39.719Z,1.60
2023-07-26T11:30:15.514Z,1.70
2023-07-26T11:32:48.788Z,1.57
2023-07-26T11:35:23.631Z,1.90
2023-07-26T11:37:58.258Z,1.80
2023-07-26T11:40:32.463Z,2.10
2023-07-26T11:43:07.154Z,1.80
2023-07-26T11:45:41.223Z,2.00
2023-07-26T11:48:15.484Z,1.90
2023-07-26T11:51:01.240Z,2.00
2023-07-26T11:53:44.120Z,1.57
2023-07-26T11:56:29.521Z,1.70
2023-07-26T11:59:02.462Z,2.07
2023-07-26T12:01:38.933Z,2.07
2023-07-26T12:04:12.461Z,1.90
2023-07-26T12:06:46.370Z,1.80
2023-07-26T12:09:19.177Z,1.90
2023-07-26T12:11:54.352Z,1.70
2023-07-26T12:14:32.475Z,1.77
2023-07-26T12:17:05.389Z,1.73
2023-07-26T12:19:38.265Z,1.80
2023-07-26T12:22:11.788Z,1.90
2023-07-26T12:24:52.014Z,2.03
2023-07-26T12:27:26.124Z,2.00
2023-07-26T12:29:58.861Z,1.60
2023-07-26T12:32:32.264Z,1.90
2023-07-26T12:35:18.902Z,2.13
2023-07-26T12:37:54.476Z,1.80
2023-07-26T12:40:29.968Z,2.10
2023-07-26T12:43:20.326Z,2.53
2023-07-26T12:45:53.216Z,2.17
2023-07-26T12:48:26.553Z,1.73
2023-07-26T12:50:59.508Z,1.50
2023-07-26T12:53:32.280Z,1.90
2023-07-26T12:56:05.043Z,1.90
2023-07-26T12:58:49.540Z,2.10
2023-07-26T13:01:32.486Z,2.47
2023-07-26T13:04:08.471Z,2.77
2023-07-26T13:06:45.659Z,2.10
2023-07-26T13:09:18.412Z,2.37
2023-07-26T13:11:51.083Z,2.07
2023-07-26T13:14:25.258Z,2.37
2023-07-26T13:16:57.997Z,1.57
2023-07-26T13:19:30.743Z,1.90
2023-07-26T13:22:03.480Z,2.70
2023-07-26T13:24:37.103Z,1.97
2023-07-26T13:27:09.967Z,2.33
2023-07-26T13:29:44.044Z,2.10
2023-07-26T13:32:17.276Z,1.70
2023-07-26T13:34:50.477Z,2.20
2023-07-26T13:37:23.275Z,4.63
2023-07-26T13:39:56.032Z,3.10
2023-07-26T13:42:28.951Z,4.23
2023-07-26T13:45:03.752Z,3.67
2023-07-26T13:47:36.737Z,2.03
2023-07-26T13:50:09.984Z,2.00
2023-07-26T13:52:42.780Z,2.10
2023-07-26T13:55:15.428Z,2.03
2023-07-26T13:57:48.080Z,2.50
2023-07-26T14:00:22.247Z,2.10
2023-07-26T14:02:55.034Z,2.27
2023-07-26T14:05:27.998Z,1.70
2023-07-26T14:08:03.503Z,1.90
2023-07-26T14:10:41.013Z,1.60
2023-07-26T14:13:17.073Z,1.87
2023-07-26T14:15:51.201Z,1.77
2023-07-26T14:18:23.954Z,2.07
2023-07-26T14:20:56.657Z,2.07
2023-07-26T14:23:30.474Z,2.23
2023-07-26T14:26:03.774Z,2.17
2023-07-26T14:28:36.431Z,2.30
2023-07-26T14:31:13.985Z,2.50
2023-07-26T14:33:46.709Z,2.57
2023-07-26T14:36:22.302Z,2.43
2023-07-26T14:38:55.553Z,2.30
2023-07-26T14:41:28.303Z,2.73
2023-07-26T14:44:03.336Z,5.00
2023-07-26T14:46:40.693Z,2.50
2023-07-26T14:49:13.458Z,2.07
2023-07-26T14:51:50.521Z,1.93
2023-07-26T14:54:23.652Z,1.83
2023-07-26T14:57:09.739Z,1.73
2023-07-26T14:59:46.790Z,1.70
2023-07-26T15:02:24.287Z,1.40
2023-07-26T15:04:57.135Z,1.50
2023-07-26T15:07:33.150Z,1.57
2023-07-26T15:10:08.192Z,1.50
2023-07-26T15:12:41.964Z,1.77
2023-07-26T15:15:17.937Z,1.67
2023-07-26T15:17:52.092Z,1.60
2023-07-26T15:20:24.842Z,1.60
2023-07-26T15:22:57.528Z,1.57
2023-07-26T15:25:30.519Z,1.63
2023-07-26T15:28:04.253Z,1.77
2023-07-26T15:30:37.894Z,1.60
2023-07-26T15:33:12.215Z,1.60
2023-07-26T15:35:44.958Z,1.80
2023-07-26T15:38:17.802Z,1.50
2023-07-26T15:40:50.530Z,1.40
2023-07-26T15:43:23.959Z,1.60
2023-07-26T15:45:58.264Z,1.80
2023-07-26T15:48:35.320Z,1.47
2023-07-26T15:51:11.029Z,1.27
2023-07-26T15:53:43.605Z,1.30
2023-07-26T15:56:16.258Z,1.40
2023-07-26T15:58:52.230Z,1.60
2023-07-26T16:01:25.318Z,1.50
2023-07-26T16:03:59.473Z,1.50
2023-07-26T16:09:28.508Z,1.90
2023-07-26T16:17:18.706Z,1.70
2023-07-26T16:19:54.489Z,1.20
2023-07-26T16:22:30.293Z,1.47
2023-07-26T16:25:03.127Z,1.47
2023-07-26T16:27:38.034Z,1.77
2023-07-26T16:30:11.375Z,1.50
2023-07-26T16:32:44.239Z,1.60
2023-07-26T16:35:18.354Z,1.80
2023-07-26T16:37:50.952Z,1.80
2023-07-26T16:40:23.694Z,1.70
2023-07-26T16:42:56.385Z,1.60
2023-07-26T16:45:29.133Z,1.60
2023-07-26T16:48:02.268Z,1.60
2023-07-26T16:50:37.525Z,1.57
2023-07-26T16:53:10.356Z,1.80
2023-07-26T16:55:43.000Z,1.77
2023-07-26T16:58:15.567Z,1.77
2023-07-26T17:00:48.323Z,1.60
2023-07-26T17:03:24.997Z,1.40
2023-07-26T17:05:59.094Z,2.00
2023-07-26T17:08:34.678Z,2.00
2023-07-26T17:11:10.223Z,1.73
2023-07-26T17:13:43.398Z,1.70
2023-07-26T17:16:17.265Z,2.40
2023-07-26T17:18:50.916Z,1.93
2023-07-26T17:21:24.952Z,1.80
2023-07-26T17:23:58.727Z,1.80
2023-07-26T17:26:31.991Z,1.83
2023-07-26T17:29:05.450Z,1.80
2023-07-26T17:31:41.126Z,1.90
2023-07-26T17:34:14.968Z,1.80
2023-07-26T17:36:49.105Z,2.40
2023-07-26T17:39:23.933Z,2.17
2023-07-26T17:41:57.374Z,1.53
2023-07-26T17:44:32.672Z,1.80
2023-07-26T17:47:05.617Z,1.80
2023-07-26T17:49:38.293Z,2.40
2023-07-26T17:52:12.326Z,2.10
2023-07-26T17:54:45.038Z,2.27
2023-07-26T17:57:17.650Z,1.93
2023-07-26T17:59:50.211Z,1.60
2023-07-26T18:02:23.041Z,1.60
2023-07-26T18:04:55.839Z,1.50
2023-07-26T18:07:29.830Z,1.97
2023-07-26T18:10:02.511Z,1.90
2023-07-26T18:12:35.515Z,1.60
2023-07-26T18:15:08.665Z,1.50
2023-07-26T18:17:41.283Z,1.70
2023-07-26T18:20:14.136Z,2.13
2023-07-26T18:22:48.441Z,2.10
2023-07-26T18:25:21.140Z,1.60
2023-07-26T18:27:56.851Z,1.70
2023-07-26T18:30:29.589Z,1.90
2023-07-26T18:33:02.599Z,2.13
2023-07-26T18:35:36.813Z,2.23
2023-07-26T18:38:10.796Z,2.40
2023-07-26T18:40:43.370Z,2.70
2023-07-26T18:43:22.054Z,2.43
2023-07-26T18:45:56.110Z,2.07
2023-07-26T18:48:28.686Z,1.93
2023-07-26T18:51:02.236Z,2.07
2023-07-26T18:53:36.337Z,2.70
2023-07-26T18:56:09.185Z,2.03
2023-07-26T18:58:44.008Z,2.23
2023-07-26T19:01:16.663Z,2.60
2023-07-26T19:03:49.344Z,2.33
2023-07-26T19:06:22.942Z,2.70
2023-07-26T19:08:57.058Z,2.57
2023-07-26T19:11:29.756Z,2.40
2023-07-26T19:14:02.465Z,2.37
2023-07-26T19:16:36.868Z,2.60
2023-07-26T19:19:14.752Z,2.90
2023-07-26T19:21:49.414Z,3.03
2023-07-26T19:24:24.089Z,3.30
2023-07-26T19:26:57.015Z,3.23
2023-07-26T19:29:31.166Z,3.10
2023-07-26T19:32:04.321Z,2.83
2023-07-26T19:34:36.933Z,2.80
2023-07-26T19:37:09.736Z,3.80
2023-07-26T19:39:43.741Z,3.93
2023-07-26T19:42:16.534Z,3.90
2023-07-26T19:44:50.534Z,3.20
2023-07-26T19:47:25.761Z,3.70
2023-07-26T19:49:58.866Z,3.60
2023-07-26T19:52:31.465Z,3.40
2023-07-26T19:55:05.804Z,3.20
2023-07-26T19:57:38.466Z,3.23
2023-07-26T20:00:14.494Z,2.97
2023-07-26T20:02:47.537Z,3.17
2023-07-26T20:05:28.939Z,3.40
2023-07-26T20:08:01.762Z,3.33
2023-07-26T20:10:35.871Z,3.50
2023-07-26T20:13:09.725Z,4.03
2023-07-26T20:15:42.684Z,3.80
2023-07-26T20:18:15.451Z,3.10
2023-07-26T20:20:48.794Z,2.10
2023-07-26T20:23:21.459Z,2.30
2023-07-26T20:25:58.103Z,2.53
2023-07-26T20:28:30.752Z,2.40
2023-07-26T20:31:04.101Z,3.73
2023-07-26T20:33:37.758Z,3.10
2023-07-26T20:36:10.498Z,2.80
2023-07-26T20:38:43.214Z,2.37
2023-07-26T20:41:17.486Z,2.13
2023-07-26T20:43:50.340Z,2.57
2023-07-26T20:46:25.744Z,1.97
2023-07-26T20:48:58.556Z,2.50
2023-07-26T20:51:31.104Z,2.70
2023-07-26T20:54:03.899Z,2.60
2023-07-26T20:56:37.866Z,2.40
2023-07-26T20:59:10.594Z,2.83
2023-07-26T21:01:43.851Z,2.60
2023-07-26T21:04:16.476Z,2.07
2023-07-26T21:06:52.116Z,2.20
2023-07-26T21:09:24.937Z,2.33
2023-07-26T21:11:58.938Z,2.40
2023-07-26T21:14:32.544Z,2.37
2023-07-26T21:17:07.589Z,2.37
2023-07-26T21:19:40.886Z,2.50
2023-07-26T21:22:16.520Z,2.07
2023-07-26T21:24:49.245Z,2.27
2023-07-26T21:27:23.304Z,2.13
2023-07-26T21:29:56.065Z,2.03
2023-07-26T21:32:28.671Z,2.13
2023-07-26T21:35:01.390Z,2.00
2023-07-26T21:37:36.966Z,1.93
2023-07-26T21:40:12.458Z,2.20
2023-07-26T21:42:47.584Z,2.20
2023-07-26T21:45:22.836Z,1.83
2023-07-26T21:47:55.866Z,1.90
2023-07-26T21:50:28.520Z,1.93
2023-07-26T21:53:01.228Z,1.80
2023-07-26T21:55:33.962Z,2.27
2023-07-26T21:58:07.931Z,2.20
2023-07-26T22:00:43.593Z,2.00
2023-07-26T22:03:16.997Z,2.00
2023-07-26T22:05:52.230Z,2.30
2023-07-26T22:08:24.962Z,2.37
2023-07-26T22:11:00.810Z,2.50
2023-07-26T22:13:34.770Z,2.60
2023-07-26T22:16:07.681Z,2.30
2023-07-26T22:18:40.425Z,2.47
2023-07-26T22:21:16.743Z,2.40
2023-07-26T22:23:49.815Z,2.40
2023-07-26T22:26:22.590Z,2.20
2023-07-26T22:28:56.586Z,2.10
2023-07-26T22:31:29.393Z,2.50
2023-07-26T22:34:02.190Z,2.20
2023-07-26T22:36:35.274Z,2.57
2023-07-26T22:39:08.169Z,2.37
2023-07-26T22:41:40.873Z,2.00
2023-07-26T22:44:17.172Z,2.50
2023-07-26T22:46:49.918Z,2.30
2023-07-26T22:49:24.146Z,2.33
2023-07-26T22:51:56.925Z,2.13
2023-07-26T22:54:29.697Z,2.63
2023-07-26T22:57:02.661Z,2.60
2023-07-26T22:59:36.944Z,2.47
2023-07-26T23:02:09.691Z,2.27
2023-07-26T23:04:42.428Z,2.50
2023-07-26T23:07:15.161Z,2.37
2023-07-26T23:09:47.833Z,2.70
2023-07-26T23:12:20.550Z,2.50
2023-07-26T23:14:54.615Z,2.33
2023-07-26T23:17:27.251Z,2.57
2023-07-26T23:20:00.273Z,2.57
2023-07-26T23:22:33.239Z,2.17
2023-07-26T23:25:06.348Z,2.40
2023-07-26T23:27:40.572Z,2.20
2023-07-26T23:30:14.773Z,2.20
2023-07-26T23:32:49.601Z,2.33
2023-07-26T23:35:22.275Z,2.10
2023-07-26T23:37:55.061Z,2.13
2023-07-26T23:40:27.705Z,2.00
2023-07-26T23:43:00.453Z,2.20
2023-07-26T23:45:34.555Z,2.50
2023-07-26T23:48:07.389Z,2.27
2023-07-26T23:50:40.165Z,2.20
2023-07-26T23:53:13.563Z,2.30
2023-07-26T23:55:46.578Z,2.30
2023-07-26T23:58:19.318Z,2.30
